sensor_id;sensor_type;location;lat;lon;timestamp;noise_LAeq;noise_LA_min;noise_LA_max;noise_LA01;noise_LA95
66747;Laerm;53658;50.742;10.864;2024-03-02T00:00:14;40.23;38.37;41.75;;
66747;Laerm;53658;50.742;10.864;2024-03-02T00:02:44;40.13;38.05;41.61;;
66747;Laerm;53658;50.742;10.864;2024-03-02T00:05:16;40.11;38.05;41.68;;
66747;Laerm;53658;50.742;10.864;2024-03-02T00:07:43;40.09;38.21;41.38;;
66747;Laerm;53658;50.742;10.864;2024-03-02T00:10:13;40.20;38.05;41.61;;
66747;Laerm;53658;50.742;10.864;2024-03-02T00:12:40;40.51;38.37;42.03;;
66747;Laerm;53658;50.742;10.864;2024-03-02T00:17:53;40.58;38.67;42.09;;
66747;Laerm;53658;50.742;10.864;2024-03-02T00:20:22;40.62;38.74;42.16;;
66747;Laerm;53658;50.742;10.864;2024-03-02T00:22:49;40.64;38.95;42.98;;
66747;Laerm;53658;50.742;10.864;2024-03-02T00:25:16;40.65;38.95;42.09;;
66747;Laerm;53658;50.742;10.864;2024-03-02T00:27:47;40.61;38.21;42.16;;
66747;Laerm;53658;50.742;10.864;2024-03-02T00:33:07;40.65;38.81;42.16;;
66747;Laerm;53658;50.742;10.864;2024-03-02T00:35:33;40.56;38.81;42.09;;
66747;Laerm;53658;50.742;10.864;2024-03-02T00:38:04;40.53;38.67;42.03;;
66747;Laerm;53658;50.742;10.864;2024-03-02T00:40:30;40.58;38.52;42.09;;
66747;Laerm;53658;50.742;10.864;2024-03-02T00:42:56;40.55;38.67;42.22;;
66747;Laerm;53658;50.742;10.864;2024-03-02T00:45:22;40.58;38.52;41.96;;
66747;Laerm;53658;50.742;10.864;2024-03-02T00:47:48;40.57;38.52;42.09;;
66747;Laerm;53658;50.742;10.864;2024-03-02T00:50:14;40.54;38.81;41.96;;
66747;Laerm;53658;50.742;10.864;2024-03-02T00:52:41;40.55;38.67;42.09;;
66747;Laerm;53658;50.742;10.864;2024-03-02T00:55:07;40.51;38.67;41.96;;
66747;Laerm;53658;50.742;10.864;2024-03-02T00:57:34;40.54;38.52;41.96;;
66747;Laerm;53658;50.742;10.864;2024-03-02T01:00:00;40.53;38.67;41.89;;
66747;Laerm;53658;50.742;10.864;2024-03-02T01:02:26;40.49;38.81;41.75;;
66747;Laerm;53658;50.742;10.864;2024-03-02T01:04:52;40.47;38.67;48.54;;
66747;Laerm;53658;50.742;10.864;2024-03-02T01:07:18;40.43;38.81;41.82;;
66747;Laerm;53658;50.742;10.864;2024-03-02T01:09:44;40.46;38.37;42.03;;
66747;Laerm;53658;50.742;10.864;2024-03-02T01:12:10;40.52;38.95;42.09;;
66747;Laerm;53658;50.742;10.864;2024-03-02T01:14:36;40.54;38.95;41.96;;
66747;Laerm;53658;50.742;10.864;2024-03-02T01:17:02;40.61;38.81;42.09;;
66747;Laerm;53658;50.742;10.864;2024-03-02T01:19:30;40.67;38.67;42.22;;
66747;Laerm;53658;50.742;10.864;2024-03-02T01:21:56;40.68;38.37;42.03;;
66747;Laerm;53658;50.742;10.864;2024-03-02T01:24:22;40.70;38.67;42.22;;
66747;Laerm;53658;50.742;10.864;2024-03-02T01:26:48;40.72;38.67;44.20;;
66747;Laerm;53658;50.742;10.864;2024-03-02T01:29:14;40.60;38.37;42.47;;
66747;Laerm;53658;50.742;10.864;2024-03-02T01:31:39;40.54;38.74;42.03;;
66747;Laerm;53658;50.742;10.864;2024-03-02T01:34:08;40.53;38.67;42.03;;
66747;Laerm;53658;50.742;10.864;2024-03-02T01:36:34;40.52;38.67;42.09;;
66747;Laerm;53658;50.742;10.864;2024-03-02T01:39:00;40.52;38.37;41.96;;
66747;Laerm;53658;50.742;10.864;2024-03-02T01:41:26;40.51;38.67;41.89;;
66747;Laerm;53658;50.742;10.864;2024-03-02T01:43:52;40.51;38.67;42.03;;
66747;Laerm;53658;50.742;10.864;2024-03-02T01:46:18;40.50;38.67;42.29;;
66747;Laerm;53658;50.742;10.864;2024-03-02T01:48:44;40.48;38.67;43.49;;
66747;Laerm;53658;50.742;10.864;2024-03-02T01:51:09;40.47;38.47;42.16;;
66747;Laerm;53658;50.742;10.864;2024-03-02T01:53:36;40.47;38.37;42.16;;
66747;Laerm;53658;50.742;10.864;2024-03-02T01:56:03;40.48;38.52;42.09;;
66747;Laerm;53658;50.742;10.864;2024-03-02T01:58:29;40.49;38.37;41.89;;
66747;Laerm;53658;50.742;10.864;2024-03-02T02:00:55;40.49;38.67;42.16;;
66747;Laerm;53658;50.742;10.864;2024-03-02T02:03:20;40.49;38.67;41.96;;
66747;Laerm;53658;50.742;10.864;2024-03-02T02:05:46;40.46;38.67;42.09;;
66747;Laerm;53658;50.742;10.864;2024-03-02T02:08:13;40.48;38.52;42.03;;
66747;Laerm;53658;50.742;10.864;2024-03-02T02:10:39;40.46;38.21;41.89;;
66747;Laerm;53658;50.742;10.864;2024-03-02T02:13:05;40.46;38.52;42.09;;
66747;Laerm;53658;50.742;10.864;2024-03-02T02:15:33;40.48;38.37;42.16;;
66747;Laerm;53658;50.742;10.864;2024-03-02T02:18:01;40.48;38.67;41.96;;
66747;Laerm;53658;50.742;10.864;2024-03-02T02:20:27;40.49;38.37;42.03;;
66747;Laerm;53658;50.742;10.864;2024-03-02T02:23:01;40.47;38.52;41.89;;
66747;Laerm;53658;50.742;10.864;2024-03-02T02:25:28;40.48;38.21;42.03;;
66747;Laerm;53658;50.742;10.864;2024-03-02T02:27:55;40.48;38.21;41.96;;
66747;Laerm;53658;50.742;10.864;2024-03-02T02:30:24;40.49;38.67;42.03;;
66747;Laerm;53658;50.742;10.864;2024-03-02T02:32:50;40.52;38.67;42.00;;
66747;Laerm;53658;50.742;10.864;2024-03-02T02:35:16;40.52;38.52;42.09;;
66747;Laerm;53658;50.742;10.864;2024-03-02T02:37:43;40.55;38.67;42.59;;
66747;Laerm;53658;50.742;10.864;2024-03-02T02:40:10;40.54;38.67;42.47;;
66747;Laerm;53658;50.742;10.864;2024-03-02T02:42:36;40.53;38.67;42.03;;
66747;Laerm;53658;50.742;10.864;2024-03-02T02:45:02;40.49;38.67;42.03;;
66747;Laerm;53658;50.742;10.864;2024-03-02T02:47:28;40.49;38.52;42.09;;
66747;Laerm;53658;50.742;10.864;2024-03-02T02:49:55;40.50;38.67;42.47;;
66747;Laerm;53658;50.742;10.864;2024-03-02T02:52:21;40.54;38.81;42.09;;
66747;Laerm;53658;50.742;10.864;2024-03-02T02:54:47;40.56;38.81;42.03;;
66747;Laerm;53658;50.742;10.864;2024-03-02T02:57:13;40.58;38.67;42.06;;
66747;Laerm;53658;50.742;10.864;2024-03-02T02:59:39;40.60;38.52;42.16;;
66747;Laerm;53658;50.742;10.864;2024-03-02T03:02:05;40.62;38.81;42.03;;
66747;Laerm;53658;50.742;10.864;2024-03-02T03:04:32;40.65;38.37;42.09;;
66747;Laerm;53658;50.742;10.864;2024-03-02T03:06:58;40.66;38.52;42.16;;
66747;Laerm;53658;50.742;10.864;2024-03-02T03:09:23;40.68;38.67;42.22;;
66747;Laerm;53658;50.742;10.864;2024-03-02T03:11:49;40.65;38.52;41.96;;
66747;Laerm;53658;50.742;10.864;2024-03-02T03:14:15;40.64;38.67;42.53;;
66747;Laerm;53658;50.742;10.864;2024-03-02T03:16:41;40.61;38.67;42.22;;
66747;Laerm;53658;50.742;10.864;2024-03-02T03:19:06;40.63;38.67;42.22;;
66747;Laerm;53658;50.742;10.864;2024-03-02T03:21:32;40.64;38.05;42.09;;
66747;Laerm;53658;50.742;10.864;2024-03-02T03:23:58;40.64;38.87;42.09;;
66747;Laerm;53658;50.742;10.864;2024-03-02T03:26:24;40.60;38.95;42.16;;
66747;Laerm;53658;50.742;10.864;2024-03-02T03:28:50;40.55;38.67;42.09;;
66747;Laerm;53658;50.742;10.864;2024-03-02T03:31:15;40.50;38.67;41.82;;
66747;Laerm;53658;50.742;10.864;2024-03-02T03:33:41;40.47;38.81;42.03;;
66747;Laerm;53658;50.742;10.864;2024-03-02T03:36:07;40.41;38.37;41.89;;
66747;Laerm;53658;50.742;10.864;2024-03-02T03:38:33;40.29;38.52;41.68;;
66747;Laerm;53658;50.742;10.864;2024-03-02T03:40:59;40.31;38.37;41.82;;
66747;Laerm;53658;50.742;10.864;2024-03-02T03:43:25;40.38;38.67;41.75;;
66747;Laerm;53658;50.742;10.864;2024-03-02T03:45:51;40.31;38.52;41.75;;
66747;Laerm;53658;50.742;10.864;2024-03-02T03:48:17;40.23;38.37;41.89;;
66747;Laerm;53658;50.742;10.864;2024-03-02T03:50:42;40.18;38.21;41.75;;
66747;Laerm;53658;50.742;10.864;2024-03-02T03:53:08;40.07;38.05;41.53;;
66747;Laerm;53658;50.742;10.864;2024-03-02T03:55:34;39.92;38.05;41.68;;
66747;Laerm;53658;50.742;10.864;2024-03-02T03:58:00;40.34;38.37;41.96;;
66747;Laerm;53658;50.742;10.864;2024-03-02T04:00:26;40.59;38.67;42.16;;
66747;Laerm;53658;50.742;10.864;2024-03-02T04:02:52;40.62;38.81;42.09;;
66747;Laerm;53658;50.742;10.864;2024-03-02T04:05:18;40.53;38.81;41.82;;
66747;Laerm;53658;50.742;10.864;2024-03-02T04:07:44;40.42;38.67;41.75;;
66747;Laerm;53658;50.742;10.864;2024-03-02T04:10:10;40.60;38.67;42.82;;
66747;Laerm;53658;50.742;10.864;2024-03-02T04:12:36;40.66;38.52;42.22;;
66747;Laerm;53658;50.742;10.864;2024-03-02T04:15:05;40.59;38.81;42.03;;
66747;Laerm;53658;50.742;10.864;2024-03-02T04:17:33;40.49;38.67;41.82;;
66747;Laerm;53658;50.742;10.864;2024-03-02T04:20:00;40.52;38.67;41.96;;
66747;Laerm;53658;50.742;10.864;2024-03-02T04:22:27;40.60;38.67;42.09;;
66747;Laerm;53658;50.742;10.864;2024-03-02T04:24:53;40.62;38.52;42.22;;
66747;Laerm;53658;50.742;10.864;2024-03-02T04:27:19;40.59;38.52;42.41;;
66747;Laerm;53658;50.742;10.864;2024-03-02T04:29:45;40.60;38.52;42.59;;
66747;Laerm;53658;50.742;10.864;2024-03-02T04:32:11;40.55;38.81;42.03;;
66747;Laerm;53658;50.742;10.864;2024-03-02T04:34:36;40.46;38.67;41.82;;
66747;Laerm;53658;50.742;10.864;2024-03-02T04:37:02;40.29;38.52;41.96;;
66747;Laerm;53658;50.742;10.864;2024-03-02T04:39:28;40.42;38.67;42.16;;
66747;Laerm;53658;50.742;10.864;2024-03-02T04:41:54;40.45;38.52;41.89;;
66747;Laerm;53658;50.742;10.864;2024-03-02T04:44:20;40.39;38.37;42.09;;
66747;Laerm;53658;50.742;10.864;2024-03-02T04:46:45;40.18;38.37;41.89;;
66747;Laerm;53658;50.742;10.864;2024-03-02T04:49:11;39.97;38.18;41.82;;
66747;Laerm;53658;50.742;10.864;2024-03-02T04:51:37;39.71;37.52;41.22;;
66747;Laerm;53658;50.742;10.864;2024-03-02T04:54:03;39.60;37.70;41.30;;
66747;Laerm;53658;50.742;10.864;2024-03-02T04:56:29;39.45;37.32;41.22;;
66747;Laerm;53658;50.742;10.864;2024-03-02T04:58:58;39.38;36.91;40.89;;
66747;Laerm;53658;50.742;10.864;2024-03-02T05:01:23;50.39;37.12;86.23;;
66747;Laerm;53658;50.742;10.864;2024-03-02T05:03:49;39.18;36.91;41.06;;
66747;Laerm;53658;50.742;10.864;2024-03-02T05:06:15;39.07;36.91;40.98;;
66747;Laerm;53658;50.742;10.864;2024-03-02T05:08:41;39.05;36.69;41.06;;
66747;Laerm;53658;50.742;10.864;2024-03-02T05:11:07;38.94;36.34;41.06;;
66747;Laerm;53658;50.742;10.864;2024-03-02T05:13:52;38.84;36.20;40.80;;
66747;Laerm;53658;50.742;10.864;2024-03-02T05:16:17;38.81;36.20;40.89;;
66747;Laerm;53658;50.742;10.864;2024-03-02T05:18:43;38.72;36.20;40.53;;
66747;Laerm;53658;50.742;10.864;2024-03-02T05:21:09;39.01;35.66;61.56;;
66747;Laerm;53658;50.742;10.864;2024-03-02T05:23:35;38.65;36.20;41.14;;
66747;Laerm;53658;50.742;10.864;2024-03-02T05:26:01;38.66;35.66;40.62;;
66747;Laerm;53658;50.742;10.864;2024-03-02T05:28:26;48.85;35.04;84.60;;
66747;Laerm;53658;50.742;10.864;2024-03-02T05:30:52;38.60;36.20;40.80;;
66747;Laerm;53658;50.742;10.864;2024-03-02T05:33:18;38.62;35.94;40.80;;
66747;Laerm;53658;50.742;10.864;2024-03-02T05:35:44;38.61;35.04;40.80;;
66747;Laerm;53658;50.742;10.864;2024-03-02T05:38:10;38.64;35.36;40.98;;
66747;Laerm;53658;50.742;10.864;2024-03-02T05:40:36;38.61;35.94;40.71;;
66747;Laerm;53658;50.742;10.864;2024-03-02T05:43:02;38.62;35.94;40.43;;
66747;Laerm;53658;50.742;10.864;2024-03-02T05:45:28;38.66;35.94;40.89;;
66747;Laerm;53658;50.742;10.864;2024-03-02T05:47:54;38.72;36.20;40.71;;
66747;Laerm;53658;50.742;10.864;2024-03-02T05:50:19;38.75;36.20;40.62;;
66747;Laerm;53658;50.742;10.864;2024-03-02T05:52:45;38.86;36.20;40.88;;
66747;Laerm;53658;50.742;10.864;2024-03-02T05:55:11;38.98;36.45;40.71;;
66747;Laerm;53658;50.742;10.864;2024-03-02T05:57:37;38.98;36.45;40.98;;
66747;Laerm;53658;50.742;10.864;2024-03-02T06:00:09;38.95;36.69;40.80;;
66747;Laerm;53658;50.742;10.864;2024-03-02T06:02:39;38.81;36.20;41.22;;
66747;Laerm;53658;50.742;10.864;2024-03-02T06:05:06;38.68;36.20;40.62;;
66747;Laerm;53658;50.742;10.864;2024-03-02T06:07:35;38.65;36.20;40.80;;
66747;Laerm;53658;50.742;10.864;2024-03-02T06:10:01;38.81;35.31;59.76;;
66747;Laerm;53658;50.742;10.864;2024-03-02T06:12:27;38.58;35.94;40.71;;
66747;Laerm;53658;50.742;10.864;2024-03-02T06:14:53;38.62;35.94;40.62;;
66747;Laerm;53658;50.742;10.864;2024-03-02T06:17:19;38.61;35.94;40.53;;
66747;Laerm;53658;50.742;10.864;2024-03-02T06:19:45;38.62;35.36;40.80;;
66747;Laerm;53658;50.742;10.864;2024-03-02T06:22:12;38.59;35.66;41.82;;
66747;Laerm;53658;50.742;10.864;2024-03-02T06:24:37;38.64;35.94;40.80;;
66747;Laerm;53658;50.742;10.864;2024-03-02T06:27:03;38.79;36.20;40.62;;
66747;Laerm;53658;50.742;10.864;2024-03-02T06:29:33;39.14;36.91;41.96;;
66747;Laerm;53658;50.742;10.864;2024-03-02T06:31:59;39.53;37.52;41.75;;
66747;Laerm;53658;50.742;10.864;2024-03-02T06:34:25;39.90;38.05;42.09;;
66747;Laerm;53658;50.742;10.864;2024-03-02T06:36:51;40.09;38.37;41.53;;
66747;Laerm;53658;50.742;10.864;2024-03-02T06:39:17;40.27;38.37;45.14;;
66747;Laerm;53658;50.742;10.864;2024-03-02T06:41:43;40.33;38.67;41.96;;
66747;Laerm;53658;50.742;10.864;2024-03-02T06:44:09;40.37;38.67;41.89;;
66747;Laerm;53658;50.742;10.864;2024-03-02T06:46:35;40.37;38.52;41.89;;
66747;Laerm;53658;50.742;10.864;2024-03-02T06:49:01;40.37;38.52;41.75;;
66747;Laerm;53658;50.742;10.864;2024-03-02T06:51:28;40.43;38.52;41.96;;
66747;Laerm;53658;50.742;10.864;2024-03-02T06:53:54;40.43;38.52;42.03;;
66747;Laerm;53658;50.742;10.864;2024-03-02T06:56:21;40.45;38.81;41.89;;
66747;Laerm;53658;50.742;10.864;2024-03-02T06:58:47;40.49;38.52;41.96;;
66747;Laerm;53658;50.742;10.864;2024-03-02T07:01:13;40.61;38.81;43.81;;
66747;Laerm;53658;50.742;10.864;2024-03-02T07:03:38;40.55;38.37;42.42;;
66747;Laerm;53658;50.742;10.864;2024-03-02T07:06:05;40.56;38.52;42.16;;
66747;Laerm;53658;50.742;10.864;2024-03-02T07:08:31;40.56;38.52;42.24;;
66747;Laerm;53658;50.742;10.864;2024-03-02T07:10:57;40.56;38.52;42.03;;
66747;Laerm;53658;50.742;10.864;2024-03-02T07:13:23;40.66;38.67;43.54;;
66747;Laerm;53658;50.742;10.864;2024-03-02T07:15:48;40.59;38.81;42.24;;
66747;Laerm;53658;50.742;10.864;2024-03-02T07:18:30;40.62;38.67;43.19;;
66747;Laerm;53658;50.742;10.864;2024-03-02T07:20:57;40.61;38.81;42.22;;
66747;Laerm;53658;50.742;10.864;2024-03-02T07:23:27;40.60;38.67;42.09;;
66747;Laerm;53658;50.742;10.864;2024-03-02T07:25:53;40.61;38.81;44.76;;
66747;Laerm;53658;50.742;10.864;2024-03-02T07:28:31;40.61;38.37;42.29;;
66747;Laerm;53658;50.742;10.864;2024-03-02T07:31:01;40.60;38.37;41.96;;
66747;Laerm;53658;50.742;10.864;2024-03-02T07:33:27;40.60;38.05;43.24;;
66747;Laerm;53658;50.742;10.864;2024-03-02T07:35:54;40.56;38.60;42.22;;
66747;Laerm;53658;50.742;10.864;2024-03-02T07:38:21;40.49;38.52;42.35;;
66747;Laerm;53658;50.742;10.864;2024-03-02T07:40:48;40.47;38.67;41.96;;
66747;Laerm;53658;50.742;10.864;2024-03-02T07:43:19;40.45;38.52;41.96;;
66747;Laerm;53658;50.742;10.864;2024-03-02T07:45:46;40.46;38.52;45.42;;
66747;Laerm;53658;50.742;10.864;2024-03-02T07:48:12;40.45;38.52;43.14;;
66747;Laerm;53658;50.742;10.864;2024-03-02T07:50:38;40.45;38.05;41.82;;
66747;Laerm;53658;50.742;10.864;2024-03-02T07:53:05;40.51;38.67;41.89;;
66747;Laerm;53658;50.742;10.864;2024-03-02T07:55:31;40.56;38.67;42.16;;
66747;Laerm;53658;50.742;10.864;2024-03-02T07:57:57;40.58;38.81;42.09;;
66747;Laerm;53658;50.742;10.864;2024-03-02T08:00:23;40.70;38.52;42.09;;
66747;Laerm;53658;50.742;10.864;2024-03-02T08:02:52;40.78;38.95;42.00;;
66747;Laerm;53658;50.742;10.864;2024-03-02T08:05:18;40.85;39.34;42.29;;
66747;Laerm;53658;50.742;10.864;2024-03-02T08:07:47;40.91;39.11;42.22;;
66747;Laerm;53658;50.742;10.864;2024-03-02T08:10:13;40.97;39.21;42.41;;
66747;Laerm;53658;50.742;10.864;2024-03-02T08:12:39;41.06;38.95;42.29;;
66747;Laerm;53658;50.742;10.864;2024-03-02T08:15:06;41.10;39.46;42.71;;
66747;Laerm;53658;50.742;10.864;2024-03-02T08:17:32;41.11;39.08;42.36;;
66747;Laerm;53658;50.742;10.864;2024-03-02T08:19:58;41.08;38.81;42.41;;
66747;Laerm;53658;50.742;10.864;2024-03-02T08:22:24;41.09;39.08;42.35;;
66747;Laerm;53658;50.742;10.864;2024-03-02T08:24:54;41.09;39.46;42.53;;
66747;Laerm;53658;50.742;10.864;2024-03-02T08:27:20;41.11;38.99;42.71;;
66747;Laerm;53658;50.742;10.864;2024-03-02T08:29:46;41.08;39.21;42.65;;
66747;Laerm;53658;50.742;10.864;2024-03-02T08:32:12;40.97;38.67;42.59;;
66747;Laerm;53658;50.742;10.864;2024-03-02T08:34:38;40.83;38.81;42.47;;
66747;Laerm;53658;50.742;10.864;2024-03-02T08:37:04;40.77;38.81;42.71;;
66747;Laerm;53658;50.742;10.864;2024-03-02T08:39:31;40.70;38.05;42.88;;
66747;Laerm;53658;50.742;10.864;2024-03-02T08:41:57;40.70;38.67;42.82;;
66747;Laerm;53658;50.742;10.864;2024-03-02T08:44:23;40.81;38.81;42.41;;
66747;Laerm;53658;50.742;10.864;2024-03-02T08:46:48;40.86;38.67;42.88;;
66747;Laerm;53658;50.742;10.864;2024-03-02T08:49:14;40.96;39.08;45.86;;
66747;Laerm;53658;50.742;10.864;2024-03-02T08:51:40;41.00;39.21;42.35;;
66747;Laerm;53658;50.742;10.864;2024-03-02T08:54:06;41.06;39.21;43.54;;
66747;Laerm;53658;50.742;10.864;2024-03-02T08:56:32;41.00;39.34;42.59;;
66747;Laerm;53658;50.742;10.864;2024-03-02T08:58:58;41.01;39.34;42.47;;
66747;Laerm;53658;50.742;10.864;2024-03-02T09:01:24;41.02;38.67;42.41;;
66747;Laerm;53658;50.742;10.864;2024-03-02T09:03:50;41.13;39.46;45.45;;
66747;Laerm;53658;50.742;10.864;2024-03-02T09:06:16;40.96;39.46;42.35;;
66747;Laerm;53658;50.742;10.864;2024-03-02T09:08:43;41.04;38.95;42.47;;
66747;Laerm;53658;50.742;10.864;2024-03-02T09:11:10;41.07;39.21;42.42;;
66747;Laerm;53658;50.742;10.864;2024-03-02T09:13:37;41.05;39.08;42.47;;
66747;Laerm;53658;50.742;10.864;2024-03-02T09:16:04;41.27;39.21;51.75;;
66747;Laerm;53658;50.742;10.864;2024-03-02T09:18:31;41.02;39.08;42.76;;
66747;Laerm;53658;50.742;10.864;2024-03-02T09:20:56;40.97;38.95;42.65;;
66747;Laerm;53658;50.742;10.864;2024-03-02T09:23:22;40.90;38.67;42.65;;
66747;Laerm;53658;50.742;10.864;2024-03-02T09:25:48;40.85;38.67;42.41;;
66747;Laerm;53658;50.742;10.864;2024-03-02T09:28:17;40.68;38.52;42.41;;
66747;Laerm;53658;50.742;10.864;2024-03-02T09:30:44;40.56;37.88;42.35;;
66747;Laerm;53658;50.742;10.864;2024-03-02T09:33:09;40.40;37.88;42.16;;
66747;Laerm;53658;50.742;10.864;2024-03-02T09:35:35;40.22;37.52;42.16;;
66747;Laerm;53658;50.742;10.864;2024-03-02T09:38:01;40.13;37.88;41.96;;
66747;Laerm;53658;50.742;10.864;2024-03-02T09:40:29;40.07;37.52;42.29;;
66747;Laerm;53658;50.742;10.864;2024-03-02T09:42:56;40.03;36.91;42.35;;
66747;Laerm;53658;50.742;10.864;2024-03-02T09:45:24;40.03;37.32;42.47;;
66747;Laerm;53658;50.742;10.864;2024-03-02T09:47:50;40.07;37.12;44.15;;
66747;Laerm;53658;50.742;10.864;2024-03-02T09:50:16;40.24;37.32;44.87;;
66747;Laerm;53658;50.742;10.864;2024-03-02T09:52:43;40.11;37.12;44.31;;
66747;Laerm;53658;50.742;10.864;2024-03-02T09:55:09;40.01;36.91;42.82;;
66747;Laerm;53658;50.742;10.864;2024-03-02T09:57:35;39.92;36.91;41.89;;
66747;Laerm;53658;50.742;10.864;2024-03-02T10:00:01;39.97;36.91;45.20;;
66747;Laerm;53658;50.742;10.864;2024-03-02T10:02:27;39.85;36.45;42.35;;
66747;Laerm;53658;50.742;10.864;2024-03-02T10:04:53;40.09;37.12;46.73;;
66747;Laerm;53658;50.742;10.864;2024-03-02T10:07:19;39.84;36.91;42.03;;
66747;Laerm;53658;50.742;10.864;2024-03-02T10:09:47;39.77;36.91;42.03;;
66747;Laerm;53658;50.742;10.864;2024-03-02T10:12:16;39.68;36.56;41.82;;
66747;Laerm;53658;50.742;10.864;2024-03-02T10:14:43;39.66;36.20;41.75;;
66747;Laerm;53658;50.742;10.864;2024-03-02T10:17:11;39.66;36.69;41.68;;
66747;Laerm;53658;50.742;10.864;2024-03-02T10:19:37;39.57;35.36;41.61;;
66747;Laerm;53658;50.742;10.864;2024-03-02T10:22:09;39.55;36.69;41.75;;
66747;Laerm;53658;50.742;10.864;2024-03-02T10:27:16;39.51;35.66;41.68;;
66747;Laerm;53658;50.742;10.864;2024-03-02T10:29:46;39.51;35.66;41.89;;
66747;Laerm;53658;50.742;10.864;2024-03-02T10:32:12;39.50;36.69;41.53;;
66747;Laerm;53658;50.742;10.864;2024-03-02T10:34:44;39.48;36.20;41.75;;
66747;Laerm;53658;50.742;10.864;2024-03-02T10:37:11;39.43;35.86;41.53;;
66747;Laerm;53658;50.742;10.864;2024-03-02T10:39:38;39.43;36.20;41.61;;
66747;Laerm;53658;50.742;10.864;2024-03-02T10:42:09;39.44;35.94;41.61;;
66747;Laerm;53658;50.742;10.864;2024-03-02T10:44:35;39.46;36.20;41.61;;
66747;Laerm;53658;50.742;10.864;2024-03-02T10:47:03;39.49;36.45;42.16;;
66747;Laerm;53658;50.742;10.864;2024-03-02T10:49:31;39.38;36.20;41.46;;
66747;Laerm;53658;50.742;10.864;2024-03-02T10:52:00;39.36;36.20;42.03;;
66747;Laerm;53658;50.742;10.864;2024-03-02T10:54:27;39.22;35.66;41.68;;
66747;Laerm;53658;50.742;10.864;2024-03-02T10:56:59;39.17;35.94;41.38;;
66747;Laerm;53658;50.742;10.864;2024-03-02T10:59:36;39.07;34.69;44.35;;
66747;Laerm;53658;50.742;10.864;2024-03-02T11:02:06;38.90;34.69;43.29;;
66747;Laerm;53658;50.742;10.864;2024-03-02T11:04:34;38.82;35.04;41.53;;
66747;Laerm;53658;50.742;10.864;2024-03-02T11:07:06;38.82;35.66;43.04;;
66747;Laerm;53658;50.742;10.864;2024-03-02T11:09:34;38.79;34.69;41.06;;
66747;Laerm;53658;50.742;10.864;2024-03-02T11:12:12;38.76;35.36;41.06;;
66747;Laerm;53658;50.742;10.864;2024-03-02T11:14:42;38.76;34.69;42.22;;
66747;Laerm;53658;50.742;10.864;2024-03-02T11:17:13;38.83;35.04;41.46;;
66747;Laerm;53658;50.742;10.864;2024-03-02T11:19:41;38.85;35.04;41.53;;
66747;Laerm;53658;50.742;10.864;2024-03-02T11:22:09;38.81;35.36;41.06;;
66747;Laerm;53658;50.742;10.864;2024-03-02T11:24:35;38.78;35.04;40.98;;
66747;Laerm;53658;50.742;10.864;2024-03-02T11:27:06;38.82;35.59;41.06;;
66747;Laerm;53658;50.742;10.864;2024-03-02T11:32:31;38.79;35.36;41.22;;
66747;Laerm;53658;50.742;10.864;2024-03-02T11:34:57;38.74;34.69;41.68;;
66747;Laerm;53658;50.742;10.864;2024-03-02T11:37:24;38.69;34.31;41.14;;
66747;Laerm;53658;50.742;10.864;2024-03-02T11:39:51;38.69;35.04;41.46;;
66747;Laerm;53658;50.742;10.864;2024-03-02T11:42:17;38.77;35.36;42.35;;
66747;Laerm;53658;50.742;10.864;2024-03-02T11:44:47;38.66;34.34;40.98;;
66747;Laerm;53658;50.742;10.864;2024-03-02T11:47:15;38.62;33.90;41.53;;
66747;Laerm;53658;50.742;10.864;2024-03-02T11:49:43;39.36;35.36;50.75;;
66747;Laerm;53658;50.742;10.864;2024-03-02T11:52:13;38.56;35.04;40.80;;
66747;Laerm;53658;50.742;10.864;2024-03-02T11:54:42;38.66;34.31;42.71;;
66747;Laerm;53658;50.742;10.864;2024-03-02T11:57:22;38.94;34.69;43.86;;
66747;Laerm;53658;50.742;10.864;2024-03-02T11:59:49;38.61;34.69;42.65;;
66747;Laerm;53658;50.742;10.864;2024-03-02T12:02:19;38.66;34.69;42.47;;
66747;Laerm;53658;50.742;10.864;2024-03-02T12:04:47;38.84;34.69;42.16;;
66747;Laerm;53658;50.742;10.864;2024-03-02T12:07:21;38.63;35.04;42.03;;
66747;Laerm;53658;50.742;10.864;2024-03-02T12:09:49;38.64;35.04;41.46;;
66747;Laerm;53658;50.742;10.864;2024-03-02T12:12:24;38.75;33.44;43.34;;
66747;Laerm;53658;50.742;10.864;2024-03-02T12:14:52;38.57;33.90;41.38;;
66747;Laerm;53658;50.742;10.864;2024-03-02T12:17:18;38.55;34.69;41.14;;
66747;Laerm;53658;50.742;10.864;2024-03-02T12:19:44;38.51;33.44;41.30;;
66747;Laerm;53658;50.742;10.864;2024-03-02T12:22:11;38.50;34.31;41.30;;
66747;Laerm;53658;50.742;10.864;2024-03-02T12:24:38;38.48;33.55;42.41;;
66747;Laerm;53658;50.742;10.864;2024-03-02T12:27:05;38.44;34.69;42.47;;
66747;Laerm;53658;50.742;10.864;2024-03-02T12:29:31;38.40;33.90;41.30;;
66747;Laerm;53658;50.742;10.864;2024-03-02T12:31:59;38.39;34.31;41.14;;
66747;Laerm;53658;50.742;10.864;2024-03-02T12:34:26;38.40;33.90;43.39;;
66747;Laerm;53658;50.742;10.864;2024-03-02T12:36:52;38.37;33.90;42.41;;
66747;Laerm;53658;50.742;10.864;2024-03-02T12:39:19;38.29;34.69;40.98;;
66747;Laerm;53658;50.742;10.864;2024-03-02T12:41:46;38.18;33.44;41.06;;
66747;Laerm;53658;50.742;10.864;2024-03-02T12:44:12;38.28;32.35;42.98;;
66747;Laerm;53658;50.742;10.864;2024-03-02T12:46:38;38.12;32.93;41.11;;
66747;Laerm;53658;50.742;10.864;2024-03-02T12:49:12;40.02;33.44;54.43;;
66747;Laerm;53658;50.742;10.864;2024-03-02T12:51:42;38.79;33.90;52.63;;
66747;Laerm;53658;50.742;10.864;2024-03-02T12:54:09;37.99;33.44;40.89;;
66747;Laerm;53658;50.742;10.864;2024-03-02T12:56:37;38.07;32.93;41.89;;
66747;Laerm;53658;50.742;10.864;2024-03-02T12:59:04;38.01;33.44;41.38;;
66747;Laerm;53658;50.742;10.864;2024-03-02T13:01:31;37.93;32.35;40.80;;
66747;Laerm;53658;50.742;10.864;2024-03-02T13:03:58;38.13;32.35;43.68;;
66747;Laerm;53658;50.742;10.864;2024-03-02T13:06:25;37.83;32.93;40.62;;
66747;Laerm;53658;50.742;10.864;2024-03-02T13:08:54;38.00;32.93;41.94;;
66747;Laerm;53658;50.742;10.864;2024-03-02T13:11:22;37.97;33.55;41.53;;
66747;Laerm;53658;50.742;10.864;2024-03-02T13:13:49;37.81;32.93;40.62;;
66747;Laerm;53658;50.742;10.864;2024-03-02T13:16:15;37.85;32.93;40.89;;
66747;Laerm;53658;50.742;10.864;2024-03-02T13:18:42;37.84;33.44;41.38;;
66747;Laerm;53658;50.742;10.864;2024-03-02T13:21:10;37.79;32.93;41.14;;
66747;Laerm;53658;50.742;10.864;2024-03-02T13:23:36;37.78;32.93;40.53;;
66747;Laerm;53658;50.742;10.864;2024-03-02T13:26:02;37.82;32.35;40.62;;
66747;Laerm;53658;50.742;10.864;2024-03-02T13:28:28;37.85;32.35;44.03;;
66747;Laerm;53658;50.742;10.864;2024-03-02T13:30:54;37.86;32.93;40.80;;
66747;Laerm;53658;50.742;10.864;2024-03-02T13:33:20;37.87;32.93;41.53;;
66747;Laerm;53658;50.742;10.864;2024-03-02T13:35:52;37.87;31.68;42.93;;
66747;Laerm;53658;50.742;10.864;2024-03-02T13:38:21;38.02;32.93;42.59;;
66747;Laerm;53658;50.742;10.864;2024-03-02T13:40:49;37.68;31.68;42.53;;